Wetterdaten: Freitag, 12.09.2014
Datum Zeit Temperatur Luftfeuchte Luftdruck Regen Wind Richtung Richtung Taupunkt Windchill Windben
12.09.2014 00:00 7,6 C 94 % 1018,1 hPa 0,0 l/m 0,0 km/h (0 Bft) N-NO 22 6,7 C 13,3 C 0,0 km/h (0 Bft)
12.09.2014 00:10 7,5 C 94 % 1017,9 hPa 0,0 l/m 0,0 km/h (0 Bft) N-NO 22 6,6 C 13,3 C 0,0 km/h (0 Bft)
12.09.2014 00:20 7,5 C 94 % 1017,9 hPa 0,0 l/m 0,0 km/h (0 Bft) N-NO 22 6,6 C 13,3 C 0,0 km/h (0 Bft)
12.09.2014 00:30 7,5 C 95 % 1017,9 hPa 0,0 l/m 0,0 km/h (0 Bft) N-NO 22 6,8 C 13,3 C 0,0 km/h (0 Bft)
12.09.2014 00:40 7,6 C 95 % 1017,9 hPa 0,0 l/m 0,0 km/h (0 Bft) N-NO 22 6,9 C 13,3 C 0,0 km/h (0 Bft)
12.09.2014 00:50 7,6 C 95 % 1018,1 hPa 0,0 l/m 0,0 km/h (0 Bft) N-NO 22 6,9 C 13,3 C 0,0 km/h (0 Bft)
12.09.2014 00:58 7,5 C 95 % 1018,1 hPa 0,0 l/m 0,0 km/h (0 Bft) N-NO 22 6,8 C 13,3 C 0,0 km/h (0 Bft)
12.09.2014 01:00 7,5 C 95 % 1017,9 hPa 0,0 l/m 0,0 km/h (0 Bft) N-NO 22 6,8 C 13,3 C 0,0 km/h (0 Bft)
12.09.2014 01:10 7,4 C 95 % 1017,9 hPa 0,0 l/m 0,0 km/h (0 Bft) N-NO 22 6,7 C 13,3 C 0,0 km/h (0 Bft)
12.09.2014 01:20 7,2 C 95 % 1017,9 hPa 0,0 l/m 0,0 km/h (0 Bft) N-NO 22 6,5 C 13,3 C 0,0 km/h (0 Bft)
12.09.2014 01:30 7,2 C 95 % 1017,9 hPa 0,0 l/m 0,0 km/h (0 Bft) N-NO 22 6,5 C 13,3 C 0,0 km/h (0 Bft)
12.09.2014 01:40 7,3 C 95 % 1017,8 hPa 0,0 l/m 0,0 km/h (0 Bft) N-NO 22 6,6 C 13,3 C 0,0 km/h (0 Bft)
12.09.2014 01:50 7,3 C 95 % 1017,8 hPa 0,0 l/m 0,0 km/h (0 Bft) N-NO 22 6,6 C 13,3 C 0,0 km/h (0 Bft)
12.09.2014 02:00 7,3 C 95 % 1017,8 hPa 0,0 l/m 0,0 km/h (0 Bft) N-NO 22 6,6 C 13,3 C 0,0 km/h (0 Bft)
12.09.2014 02:10 7,2 C 95 % 1017,8 hPa 0,0 l/m 0,2 km/h (0 Bft) SO 135 6,5 C 7,0 C 0,0 km/h (0 Bft)
12.09.2014 02:20 7,2 C 95 % 1017,9 hPa 0,0 l/m 0,0 km/h (0 Bft) W-SW 247 6,5 C 7,0 C 0,0 km/h (0 Bft)
12.09.2014 02:30 7,3 C 95 % 1017,9 hPa 0,0 l/m 0,0 km/h (0 Bft) W-SW 247 6,6 C 7,0 C 0,0 km/h (0 Bft)
12.09.2014 02:40 7,3 C 95 % 1018,1 hPa 0,0 l/m 0,0 km/h (0 Bft) W-SW 247 6,6 C 7,0 C 0,0 km/h (0 Bft)
12.09.2014 02:50 7,4 C 95 % 1018,1 hPa 0,0 l/m 0,0 km/h (0 Bft) W-SW 247 6,7 C 7,0 C 0,0 km/h (0 Bft)
12.09.2014 03:00 7,4 C 95 % 1018,1 hPa 0,0 l/m 0,0 km/h (0 Bft) W-SW 247 6,7 C 7,0 C 0,0 km/h (0 Bft)
12.09.2014 03:10 7,5 C 95 % 1018,1 hPa 0,0 l/m 0,0 km/h (0 Bft) W-SW 247 6,8 C 7,0 C 0,0 km/h (0 Bft)
12.09.2014 03:20 7,5 C 96 % 1018,2 hPa 0,0 l/m 0,0 km/h (0 Bft) W-SW 247 6,9 C 7,0 C 0,0 km/h (0 Bft)
12.09.2014 03:30 7,5 C 96 % 1018,2 hPa 0,0 l/m 0,0 km/h (0 Bft) W-SW 247 6,9 C 7,0 C 0,0 km/h (0 Bft)
12.09.2014 03:40 7,6 C 95 % 1017,9 hPa 0,0 l/m 0,0 km/h (0 Bft) W-SW 247 6,9 C 7,0 C 0,0 km/h (0 Bft)
12.09.2014 03:48 7,6 C 96 % 1017,9 hPa 0,0 l/m 0,0 km/h (0 Bft) W-SW 247 7,0 C 7,0 C 0,0 km/h (0 Bft)
12.09.2014 03:50 7,6 C 96 % 1017,9 hPa 0,0 l/m 0,0 km/h (0 Bft) W-SW 247 7,0 C 7,0 C 0,0 km/h (0 Bft)
12.09.2014 04:00 7,6 C 96 % 1017,8 hPa 0,0 l/m 0,0 km/h (0 Bft) W-SW 247 7,0 C 7,0 C 0,0 km/h (0 Bft)
12.09.2014 04:10 7,6 C 96 % 1017,8 hPa 0,0 l/m 0,0 km/h (0 Bft) W-SW 247 7,0 C 7,0 C 0,0 km/h (0 Bft)
12.09.2014 04:20 7,6 C 96 % 1017,6 hPa 0,0 l/m 0,0 km/h (0 Bft) W-SW 247 7,0 C 7,0 C 0,0 km/h (0 Bft)
12.09.2014 04:30 7,6 C 96 % 1017,6 hPa 0,0 l/m 0,0 km/h (0 Bft) W-SW 247 7,0 C 7,0 C 0,0 km/h (0 Bft)
12.09.2014 04:40 7,7 C 96 % 1017,7 hPa 0,0 l/m 0,0 km/h (0 Bft) W-SW 247 7,1 C 7,0 C 0,0 km/h (0 Bft)
12.09.2014 04:50 7,7 C 96 % 1017,7 hPa 0,0 l/m 0,0 km/h (0 Bft) W-SW 247 7,1 C 7,0 C 0,0 km/h (0 Bft)
12.09.2014 05:00 7,8 C 96 % 1017,6 hPa 0,0 l/m 0,0 km/h (0 Bft) W-SW 247 7,2 C 7,0 C 0,0 km/h (0 Bft)
12.09.2014 05:10 7,9 C 96 % 1017,6 hPa 0,0 l/m 0,0 km/h (0 Bft) W-SW 247 7,3 C 7,0 C 0,0 km/h (0 Bft)
12.09.2014 05:20 7,8 C 96 % 1017,4 hPa 0,0 l/m 0,0 km/h (0 Bft) W-SW 247 7,2 C 7,0 C 0,0 km/h (0 Bft)
12.09.2014 05:30 7,6 C 96 % 1017,4 hPa 0,0 l/m 0,0 km/h (0 Bft) W-SW 247 7,0 C 7,0 C 0,0 km/h (0 Bft)
12.09.2014 05:40 7,7 C 96 % 1017,4 hPa 0,0 l/m 0,0 km/h (0 Bft) W-SW 247 7,1 C 7,0 C 0,0 km/h (0 Bft)
12.09.2014 05:50 7,8 C 96 % 1017,4 hPa 0,0 l/m 0,0 km/h (0 Bft) W-SW 247 7,2 C 7,0 C 0,0 km/h (0 Bft)
12.09.2014 06:00 7,8 C 96 % 1017,3 hPa 0,0 l/m 0,0 km/h (0 Bft) W-SW 247 7,2 C 7,0 C 0,0 km/h (0 Bft)
12.09.2014 06:10 7,9 C 96 % 1017,3 hPa 0,0 l/m 0,0 km/h (0 Bft) W-SW 247 7,3 C 7,0 C 0,0 km/h (0 Bft)
12.09.2014 06:20 8,0 C 96 % 1017,1 hPa 0,0 l/m 0,0 km/h (0 Bft) W-SW 247 7,4 C 7,0 C 0,0 km/h (0 Bft)
12.09.2014 06:30 8,0 C 96 % 1017,1 hPa 0,0 l/m 0,0 km/h (0 Bft) W-SW 247 7,4 C 7,0 C 0,0 km/h (0 Bft)
12.09.2014 06:40 8,0 C 96 % 1016,8 hPa 0,0 l/m 0,0 km/h (0 Bft) W-SW 247 7,4 C 7,0 C 0,0 km/h (0 Bft)
12.09.2014 06:48 8,0 C 96 % 1016,8 hPa 0,0 l/m 0,0 km/h (0 Bft) W-SW 247 7,4 C 7,0 C 0,0 km/h (0 Bft)
12.09.2014 06:50 8,0 C 96 % 1016,8 hPa 0,0 l/m 0,0 km/h (0 Bft) W-SW 247 7,4 C 7,0 C 0,0 km/h (0 Bft)
12.09.2014 07:00 8,0 C 96 % 1016,7 hPa 0,0 l/m 0,0 km/h (0 Bft) W-SW 247 7,4 C 7,0 C 0,0 km/h (0 Bft)
12.09.2014 07:10 8,1 C 96 % 1016,7 hPa 0,0 l/m 0,0 km/h (0 Bft) W-SW 247 7,5 C 7,0 C 0,0 km/h (0 Bft)
12.09.2014 07:20 8,2 C 96 % 1016,9 hPa 0,0 l/m 0,0 km/h (0 Bft) W-SW 247 7,6 C 7,0 C 0,0 km/h (0 Bft)
12.09.2014 07:30 8,3 C 96 % 1016,9 hPa 0,0 l/m 0,0 km/h (0 Bft) W-SW 247 7,7 C 7,0 C 0,0 km/h (0 Bft)
12.09.2014 07:40 8,4 C 96 % 1017,0 hPa 0,0 l/m 0,0 km/h (0 Bft) W-SW 247 7,8 C 7,0 C 0,0 km/h (0 Bft)
12.09.2014 07:50 8,5 C 96 % 1017,0 hPa 0,0 l/m 0,0 km/h (0 Bft) W-SW 247 7,9 C 7,0 C 0,0 km/h (0 Bft)
12.09.2014 08:00 8,5 C 96 % 1017,0 hPa 0,0 l/m 0,0 km/h (0 Bft) W-SW 247 7,9 C 7,0 C 0,0 km/h (0 Bft)
12.09.2014 08:10 8,7 C 96 % 1017,0 hPa 0,0 l/m 0,0 km/h (0 Bft) W-SW 247 8,1 C 7,0 C 0,0 km/h (0 Bft)
12.09.2014 08:20 8,9 C 96 % 1016,9 hPa 0,0 l/m 0,0 km/h (0 Bft) W-SW 247 8,3 C 7,0 C 0,0 km/h (0 Bft)
12.09.2014 08:30 8,9 C 96 % 1016,9 hPa 0,0 l/m 0,0 km/h (0 Bft) W-SW 247 8,3 C 7,0 C 0,0 km/h (0 Bft)
12.09.2014 08:40 8,9 C 96 % 1016,9 hPa 0,0 l/m 0,0 km/h (0 Bft) W-SW 247 8,3 C 7,0 C 0,0 km/h (0 Bft)
12.09.2014 08:50 8,8 C 96 % 1016,9 hPa 0,0 l/m 0,0 km/h (0 Bft) W-SW 247 8,2 C 7,0 C 0,0 km/h (0 Bft)
12.09.2014 09:00 8,9 C 96 % 1017,2 hPa 0,0 l/m 0,0 km/h (0 Bft) W-SW 247 8,3 C 7,0 C 0,0 km/h (0 Bft)
12.09.2014 09:10 9,0 C 95 % 1017,2 hPa 0,0 l/m 0,0 km/h (0 Bft) W-SW 247 8,2 C 7,0 C 0,0 km/h (0 Bft)
12.09.2014 09:20 9,0 C 95 % 1017,2 hPa 0,0 l/m 0,0 km/h (0 Bft) W-SW 247 8,2 C 7,0 C 0,0 km/h (0 Bft)
12.09.2014 09:30 8,8 C 95 % 1017,2 hPa 0,0 l/m 0,0 km/h (0 Bft) W-SW 247 8,0 C 7,0 C 0,0 km/h (0 Bft)
12.09.2014 09:40 8,9 C 95 % 1017,1 hPa 0,0 l/m 0,0 km/h (0 Bft) W-SW 247 8,1 C 7,0 C 0,0 km/h (0 Bft)
12.09.2014 09:48 8,9 C 95 % 1017,1 hPa 0,0 l/m 0,0 km/h (0 Bft) W-SW 247 8,1 C 7,0 C 0,0 km/h (0 Bft)
12.09.2014 09:50 8,9 C 95 % 1017,1 hPa 0,0 l/m 0,0 km/h (0 Bft) W-SW 247 8,1 C 7,0 C 0,0 km/h (0 Bft)
12.09.2014 10:00 8,9 C 95 % 1017,1 hPa 0,0 l/m 0,0 km/h (0 Bft) W-SW 247 8,1 C 7,0 C 0,0 km/h (0 Bft)
12.09.2014 10:10 8,9 C 95 % 1017,1 hPa 0,0 l/m 0,0 km/h (0 Bft) W-SW 247 8,1 C 7,0 C 0,0 km/h (0 Bft)
12.09.2014 10:20 8,9 C 95 % 1017,3 hPa 0,0 l/m 0,0 km/h (0 Bft) W-SW 247 8,1 C 7,0 C 0,0 km/h (0 Bft)
12.09.2014 10:30 8,9 C 95 % 1017,3 hPa 0,0 l/m 0,0 km/h (0 Bft) W-SW 247 8,1 C 7,0 C 0,0 km/h (0 Bft)
12.09.2014 10:40 9,5 C 95 % 1017,3 hPa 0,0 l/m 0,0 km/h (0 Bft) W-SW 247 8,7 C 7,0 C 0,0 km/h (0 Bft)
12.09.2014 10:50 9,6 C 95 % 1017,2 hPa 0,0 l/m 0,0 km/h (0 Bft) W-SW 247 8,8 C 7,0 C 0,0 km/h (0 Bft)
12.09.2014 11:00 9,7 C 95 % 1017,2 hPa 0,0 l/m 0,0 km/h (0 Bft) W-SW 247 8,9 C 7,0 C 0,0 km/h (0 Bft)
12.09.2014 11:10 10,0 C 94 % 1017,4 hPa 0,0 l/m 0,0 km/h (0 Bft) W-SW 247 9,1 C 7,0 C 0,0 km/h (0 Bft)
12.09.2014 11:20 9,7 C 94 % 1017,4 hPa 0,0 l/m 7,6 km/h (2 Bft) W 270 8,8 C 7,6 C 12,4 km/h (3 Bft)
12.09.2014 11:30 9,7 C 94 % 1017,4 hPa 0,0 l/m 6,4 km/h (2 Bft) W 270 8,8 C 8,4 C 2,9 km/h (1 Bft)
12.09.2014 11:40 9,7 C 94 % 1017,4 hPa 0,0 l/m 5,3 km/h (1 Bft) W-SW 247 8,8 C 8,8 C 7,2 km/h (2 Bft)
12.09.2014 11:50 9,6 C 93 % 1017,5 hPa 0,0 l/m 4,7 km/h (1 Bft) W-SW 247 8,5 C 9,0 C 9,7 km/h (2 Bft)
12.09.2014 12:00 9,5 C 93 % 1017,5 hPa 0,0 l/m 5,6 km/h (1 Bft) NO 45 8,4 C 8,6 C 6,6 km/h (2 Bft)
12.09.2014 12:10 9,7 C 93 % 1017,4 hPa 0,0 l/m 5,8 km/h (2 Bft) NW 315 8,6 C 8,6 C 6,3 km/h (2 Bft)
12.09.2014 12:20 9,7 C 93 % 1017,4 hPa 0,0 l/m 6,4 km/h (2 Bft) W-SW 247 8,6 C 8,5 C 7,9 km/h (2 Bft)
12.09.2014 12:30 9,8 C 93 % 1017,4 hPa 0,0 l/m 4,0 km/h (1 Bft) W 270 8,7 C 9,5 C 4,0 km/h (1 Bft)
12.09.2014 12:40 9,8 C 93 % 1017,4 hPa 0,0 l/m 5,0 km/h (1 Bft) SW 225 8,7 C 9,1 C 6,1 km/h (2 Bft)
12.09.2014 12:48 10,0 C 93 % 1017,5 hPa 0,0 l/m 4,3 km/h (1 Bft) W 270 8,9 C 9,5 C 6,4 km/h (2 Bft)
12.09.2014 12:50 10,0 C 93 % 1017,5 hPa 0,0 l/m 4,3 km/h (1 Bft) W 270 8,9 C 9,5 C 6,4 km/h (2 Bft)
12.09.2014 13:00 10,1 C 93 % 1017,5 hPa 0,0 l/m 3,5 km/h (1 Bft) W-SW 247 9,0 C 9,7 C 3,5 km/h (1 Bft)
12.09.2014 13:10 10,1 C 93 % 1017,4 hPa 0,0 l/m 4,8 km/h (1 Bft) S 180 9,0 C 9,6 C 4,8 km/h (1 Bft)
12.09.2014 13:20 10,7 C 93 % 1017,4 hPa 0,0 l/m 5,1 km/h (1 Bft) W-SW 247 9,6 C 9,8 C 7,9 km/h (2 Bft)
12.09.2014 13:30 10,8 C 92 % 1017,3 hPa 0,0 l/m 5,6 km/h (1 Bft) W-SW 247 9,6 C 10,0 C 6,1 km/h (2 Bft)
12.09.2014 13:40 11,0 C 91 % 1017,3 hPa 0,0 l/m 4,7 km/h (1 Bft) W-SW 247 9,6 C 10,6 C 6,4 km/h (2 Bft)
12.09.2014 13:50 11,1 C 91 % 1017,6 hPa 0,0 l/m 4,8 km/h (1 Bft) W-SW 247 9,7 C 10,6 C 9,3 km/h (2 Bft)
12.09.2014 14:00 11,0 C 89 % 1017,6 hPa 0,0 l/m 4,8 km/h (1 Bft) NW 315 9,3 C 10,5 C 4,7 km/h (1 Bft)
12.09.2014 14:10 10,8 C 89 % 1017,7 hPa 0,0 l/m 6,1 km/h (2 Bft) S 180 9,1 C 9,9 C 4,0 km/h (1 Bft)
12.09.2014 14:20 10,9 C 89 % 1017,7 hPa 0,0 l/m 5,6 km/h (1 Bft) W-NW 292 9,2 C 10,1 C 5,3 km/h (1 Bft)
12.09.2014 14:30 11,0 C 88 % 1017,5 hPa 0,0 l/m 6,1 km/h (2 Bft) W-SW 247 9,1 C 10,0 C 10,1 km/h (2 Bft)
12.09.2014 14:40 11,0 C 88 % 1017,5 hPa 0,0 l/m 7,7 km/h (2 Bft) W-SW 247 9,1 C 8,6 C 11,4 km/h (2 Bft)
12.09.2014 14:50 10,9 C 88 % 1017,9 hPa 0,0 l/m 7,9 km/h (2 Bft) S-SW 202 9,0 C 8,5 C 7,7 km/h (2 Bft)
12.09.2014 15:00 11,1 C 88 % 1017,9 hPa 0,0 l/m 6,0 km/h (2 Bft) W 270 9,2 C 10,2 C 16,4 km/h (3 Bft)
12.09.2014 15:10 11,3 C 88 % 1017,8 hPa 0,0 l/m 6,4 km/h (2 Bft) W-SW 247 9,4 C 10,2 C 7,2 km/h (2 Bft)
12.09.2014 15:20 11,3 C 88 % 1017,8 hPa 0,0 l/m 6,4 km/h (2 Bft) W 270 9,4 C 10,3 C 17,7 km/h (3 Bft)
12.09.2014 15:30 11,3 C 86 % 1017,6 hPa 0,0 l/m 9,2 km/h (2 Bft) W-SW 247 9,0 C 8,3 C 18,3 km/h (3 Bft)
12.09.2014 15:40 11,2 C 85 % 1017,6 hPa 0,0 l/m 9,3 km/h (2 Bft) W-SW 247 8,8 C 8,7 C 8,9 km/h (2 Bft)
12.09.2014 15:49 11,3 C 86 % 1017,7 hPa 0,0 l/m 8,7 km/h (2 Bft) W-SW 247 9,0 C 8,9 C 20,3 km/h (4 Bft)
12.09.2014 15:50 11,3 C 86 % 1017,7 hPa 0,0 l/m 8,7 km/h (2 Bft) W-SW 247 9,0 C 8,9 C 13,2 km/h (3 Bft)
12.09.2014 16:00 11,5 C 87 % 1017,7 hPa 0,0 l/m 5,3 km/h (1 Bft) N-NW 337 9,4 C 11,7 C 6,3 km/h (2 Bft)
12.09.2014 16:10 11,6 C 88 % 1017,7 hPa 0,0 l/m 3,9 km/h (1 Bft) W-SW 247 9,7 C 12,1 C 7,1 km/h (2 Bft)
12.09.2014 16:20 11,4 C 88 % 1017,7 hPa 0,0 l/m 5,3 km/h (1 Bft) W-NW 292 9,5 C 12,1 C 13,2 km/h (3 Bft)
12.09.2014 16:30 11,7 C 87 % 1017,7 hPa 0,0 l/m 7,1 km/h (2 Bft) W-SW 247 9,6 C 11,3 C 15,4 km/h (3 Bft)
12.09.2014 16:40 11,3 C 87 % 1017,7 hPa 0,0 l/m 8,5 km/h (2 Bft) SW 225 9,2 C 9,9 C 7,9 km/h (2 Bft)
12.09.2014 16:50 11,4 C 87 % 1017,8 hPa 0,0 l/m 6,0 km/h (2 Bft) W-SW 247 9,3 C 11,6 C 8,0 km/h (2 Bft)
12.09.2014 17:00 11,3 C 87 % 1017,8 hPa 0,0 l/m 6,1 km/h (2 Bft) NW 315 9,2 C 11,3 C 8,2 km/h (2 Bft)
12.09.2014 17:10 11,1 C 88 % 1017,9 hPa 0,0 l/m 5,5 km/h (1 Bft) NW 315 9,2 C 11,1 C 8,7 km/h (2 Bft)
12.09.2014 17:20 11,1 C 87 % 1017,9 hPa 0,0 l/m 6,6 km/h (2 Bft) W 270 9,0 C 10,5 C 5,8 km/h (2 Bft)
12.09.2014 17:30 10,9 C 88 % 1017,8 hPa 0,0 l/m 4,3 km/h (1 Bft) W 270 9,0 C 11,0 C 4,0 km/h (1 Bft)
12.09.2014 17:40 11,1 C 89 % 1017,8 hPa 0,0 l/m 2,9 km/h (1 Bft) W-SW 247 9,4 C 10,9 C 8,0 km/h (2 Bft)
12.09.2014 17:50 10,8 C 89 % 1017,8 hPa 0,0 l/m 3,9 km/h (1 Bft) W 270 9,1 C 10,9 C 6,6 km/h (2 Bft)
12.09.2014 18:00 10,9 C 90 % 1017,8 hPa 0,0 l/m 2,1 km/h (1 Bft) W-SW 247 9,3 C 10,9 C 2,7 km/h (1 Bft)
12.09.2014 18:10 10,7 C 90 % 1017,9 hPa 0,0 l/m 2,1 km/h (1 Bft) W 270 9,1 C 10,8 C 5,8 km/h (2 Bft)
12.09.2014 18:20 10,3 C 90 % 1017,9 hPa 0,0 l/m 4,0 km/h (1 Bft) W-SW 247 8,7 C 10,4 C 2,7 km/h (1 Bft)
12.09.2014 18:30 10,0 C 89 % 1017,9 hPa 0,0 l/m 1,9 km/h (1 Bft) NW 315 8,3 C 10,0 C 5,3 km/h (1 Bft)
12.09.2014 18:40 9,9 C 90 % 1017,9 hPa 0,0 l/m 1,9 km/h (1 Bft) S 180 8,3 C 9,9 C 1,6 km/h (1 Bft)
12.09.2014 18:49 9,6 C 90 % 1018,2 hPa 0,0 l/m 1,0 km/h (0 Bft) SO 135 8,0 C 9,7 C 2,6 km/h (1 Bft)
12.09.2014 18:50 9,6 C 90 % 1018,2 hPa 0,0 l/m 1,0 km/h (0 Bft) SO 135 8,0 C 9,7 C 2,6 km/h (1 Bft)
12.09.2014 19:00 9,4 C 90 % 1018,2 hPa 0,0 l/m 0,8 km/h (0 Bft) SO 135 7,8 C 9,4 C 3,5 km/h (1 Bft)
12.09.2014 19:10 9,3 C 90 % 1018,0 hPa 0,0 l/m 1,0 km/h (0 Bft) SO 135 7,7 C 9,2 C 2,6 km/h (1 Bft)
12.09.2014 19:20 9,1 C 90 % 1018,0 hPa 0,0 l/m 1,4 km/h (1 Bft) S-SW 202 7,5 C 9,1 C 0,0 km/h (0 Bft)
12.09.2014 19:30 9,1 C 90 % 1017,9 hPa 0,0 l/m 0,8 km/h (0 Bft) S-SW 202 7,5 C 9,0 C 0,0 km/h (0 Bft)
12.09.2014 19:40 9,1 C 91 % 1017,9 hPa 0,0 l/m 1,4 km/h (1 Bft) S 180 7,7 C 8,9 C 1,9 km/h (1 Bft)
12.09.2014 19:50 9,0 C 91 % 1018,0 hPa 0,0 l/m 1,0 km/h (0 Bft) W 270 7,6 C 8,9 C 1,9 km/h (1 Bft)
12.09.2014 20:00 9,0 C 91 % 1018,0 hPa 0,0 l/m 1,8 km/h (1 Bft) W-SW 247 7,6 C 8,8 C 3,9 km/h (1 Bft)
12.09.2014 20:10 9,0 C 91 % 1018,1 hPa 0,0 l/m 2,1 km/h (1 Bft) S-SW 202 7,6 C 8,8 C 2,9 km/h (1 Bft)
12.09.2014 20:20 9,0 C 91 % 1018,1 hPa 0,0 l/m 2,3 km/h (1 Bft) W-SW 247 7,6 C 8,7 C 7,6 km/h (2 Bft)
12.09.2014 20:30 8,9 C 91 % 1018,3 hPa 0,0 l/m 2,7 km/h (1 Bft) W 270 7,5 C 8,4 C 4,3 km/h (1 Bft)
12.09.2014 20:40 8,8 C 91 % 1018,3 hPa 0,0 l/m 2,3 km/h (1 Bft) W-SW 247 7,4 C 8,2 C 1,8 km/h (1 Bft)
12.09.2014 20:50 8,7 C 91 % 1018,3 hPa 0,0 l/m 0,5 km/h (0 Bft) S 180 7,3 C 8,1 C 2,7 km/h (1 Bft)
12.09.2014 21:00 8,5 C 92 % 1018,3 hPa 0,0 l/m 1,1 km/h (1 Bft) W 270 7,3 C 8,1 C 3,4 km/h (1 Bft)
12.09.2014 21:10 8,4 C 92 % 1018,6 hPa 0,0 l/m 1,0 km/h (0 Bft) S-SO 157 7,2 C 8,0 C 0,0 km/h (0 Bft)
12.09.2014 21:20 8,4 C 93 % 1018,6 hPa 0,0 l/m 0,6 km/h (0 Bft) W 270 7,3 C 8,0 C 1,8 km/h (1 Bft)
12.09.2014 21:30 8,4 C 93 % 1018,6 hPa 0,0 l/m 1,3 km/h (1 Bft) W-SW 247 7,3 C 8,0 C 4,2 km/h (1 Bft)
12.09.2014 21:40 8,5 C 93 % 1018,6 hPa 0,0 l/m 2,4 km/h (1 Bft) W 270 7,4 C 8,0 C 1,6 km/h (1 Bft)
12.09.2014 21:50 8,5 C 94 % 1018,8 hPa 0,0 l/m 1,6 km/h (1 Bft) W 270 7,6 C 8,1 C 0,0 km/h (0 Bft)
12.09.2014 22:00 8,5 C 94 % 1018,8 hPa 0,0 l/m 1,8 km/h (1 Bft) W 270 7,6 C 8,1 C 3,2 km/h (1 Bft)
12.09.2014 22:10 8,6 C 94 % 1018,6 hPa 0,0 l/m 2,1 km/h (1 Bft) S 180 7,7 C 8,1 C 5,0 km/h (1 Bft)
12.09.2014 22:20 8,6 C 94 % 1018,6 hPa 0,0 l/m 1,8 km/h (1 Bft) S 180 7,7 C 8,1 C 0,0 km/h (0 Bft)
12.09.2014 22:30 8,5 C 94 % 1018,7 hPa 0,0 l/m 0,2 km/h (0 Bft) S-SO 157 7,6 C 8,1 C 0,0 km/h (0 Bft)
12.09.2014 22:40 8,5 C 94 % 1018,7 hPa 0,0 l/m 1,4 km/h (1 Bft) S-SO 157 7,6 C 8,1 C 2,4 km/h (1 Bft)
12.09.2014 22:48 8,5 C 94 % 1018,9 hPa 0,0 l/m 0,5 km/h (0 Bft) SO 135 7,6 C 8,1 C 0,0 km/h (0 Bft)
12.09.2014 22:50 8,5 C 94 % 1018,9 hPa 0,0 l/m 0,5 km/h (0 Bft) SO 135 7,6 C 8,1 C 0,0 km/h (0 Bft)
12.09.2014 23:00 8,6 C 94 % 1018,9 hPa 0,0 l/m 1,1 km/h (1 Bft) S 180 7,7 C 8,2 C 0,0 km/h (0 Bft)
12.09.2014 23:10 8,6 C 94 % 1018,9 hPa 0,0 l/m 0,3 km/h (0 Bft) W-NW 292 7,7 C 8,2 C 0,0 km/h (0 Bft)
12.09.2014 23:20 8,7 C 94 % 1018,9 hPa 0,0 l/m 1,6 km/h (1 Bft) SO 135 7,8 C 8,2 C 5,0 km/h (1 Bft)
12.09.2014 23:30 8,7 C 94 % 1018,7 hPa 0,0 l/m 2,4 km/h (1 Bft) S 180 7,8 C 8,3 C 2,6 km/h (1 Bft)
12.09.2014 23:40 8,7 C 94 % 1018,7 hPa 0,0 l/m 1,4 km/h (1 Bft) SW 225 7,8 C 8,3 C 0,0 km/h (0 Bft)
12.09.2014 23:50 8,7 C 94 % 1018,9 hPa 0,0 l/m 0,5 km/h (0 Bft) S-SO 157 7,8 C 8,3 C 3,2 km/h (1 Bft)
_ Min-Zeit 02:20 15:40 07:10 - 11:10 - - 02:20 11:10 23:40
Minimum _ 7,2 C 85 % 1016,7 hPa - 0,0 km/h (0 Bft) - - 6,5 C 7,0 C 0,0 km/h (0 Bft)
_ Max-Zeit 16:30 09:00 23:50 23:50 15:40 - - 13:50 02:00 15:49
Maximum _ 11,7 C 96 % 1018,9 hPa 0,0 l/m 9,3 km/h
W-SW (2 Bft)
- - 9,7 C 13,3 C 20,3 km/h
W-SW (4 Bft)
Durchschnitt _ 9,0 C 93 % 1017,7 hPa #0,0 l/m 2,0 km/h (1 Bft) W-SW - 8,0 C 8,8 C 2,9 km/h (1 Bft)